Time;durP1;ratioP1;P1;durP2;ratioP2;P2;SDS_P1;SDS_P2;PMS_P1;PMS_P2;Temp;Humidity;BMP_temperature;BMP_pressure;BME280_temperature;BME280_humidity;BME280_pressure;Samples;Min_cycle;Max_cycle;Signal;HPM_P1;HPM_P2
2022/07/17 00:00:43;;;;;;;7.28;1.58;;;;;;;;;;5054251;28;20401;-72
2022/07/17 00:03:10;;;;;;;4.93;1.45;;;;;;;;;;5048515;28;20032;-73
2022/07/17 00:05:36;;;;;;;4.93;1.00;;;;;;;;;;5051304;28;20029;-72
2022/07/17 00:08:02;;;;;;;7.78;1.52;;;;;;;;;;5049473;28;20114;-73
2022/07/17 00:10:29;;;;;;;1.58;0.90;;;;;;;;;;5049550;28;20108;-73
2022/07/17 00:12:55;;;;;;;3.45;1.10;;;;;;;;;;5051473;28;20113;-78
2022/07/17 00:15:21;;;;;;;6.07;1.05;;;;;;;;;;5049120;28;20044;-73
2022/07/17 00:17:47;;;;;;;6.10;1.35;;;;;;;;;;5051091;28;20424;-73
2022/07/17 00:20:13;;;;;;;4.20;1.38;;;;;;;;;;5025339;28;20455;-73
2022/07/17 00:22:39;;;;;;;7.63;1.75;;;;;;;;;;5048402;28;20036;-72
2022/07/17 00:25:06;;;;;;;4.68;1.27;;;;;;;;;;5046571;28;20045;-73
2022/07/17 00:27:33;;;;;;;4.50;1.40;;;;;;;;;;5050422;28;20543;-72
2022/07/17 00:29:59;;;;;;;4.35;1.75;;;;;;;;;;5044536;28;20168;-73
2022/07/17 00:32:25;;;;;;;6.28;1.95;;;;;;;;;;5043451;28;20033;-73
2022/07/17 00:34:51;;;;;;;6.93;1.90;;;;;;;;;;5035345;28;20109;-73
2022/07/17 00:37:17;;;;;;;4.05;1.20;;;;;;;;;;5038838;28;20075;-73
2022/07/17 00:39:44;;;;;;;3.35;1.30;;;;;;;;;;5040618;28;20090;-73
2022/07/17 00:42:13;;;;;;;6.05;1.50;;;;;;;;;;5035788;28;20032;-73
2022/07/17 00:44:40;;;;;;;5.90;1.40;;;;;;;;;;5051131;28;20083;-75
2022/07/17 00:47:18;;;;;;;6.88;1.60;;;;;;;;;;5049805;28;20029;-73
2022/07/17 00:49:44;;;;;;;3.05;1.90;;;;;;;;;;5048788;28;20477;-73
2022/07/17 00:52:11;;;;;;;5.10;1.83;;;;;;;;;;5029635;28;20037;-73
2022/07/17 00:54:38;;;;;;;3.65;2.05;;;;;;;;;;5048934;28;20183;-73
2022/07/17 00:57:12;;;;;;;6.25;2.25;;;;;;;;;;5050607;28;20029;-73
2022/07/17 00:59:39;;;;;;;6.65;1.98;;;;;;;;;;5047569;28;20021;-73
2022/07/17 01:02:06;;;;;;;5.32;1.92;;;;;;;;;;5052207;28;20033;-73
2022/07/17 01:04:33;;;;;;;6.60;2.30;;;;;;;;;;5048467;28;20039;-73
2022/07/17 01:07:00;;;;;;;4.93;2.30;;;;;;;;;;5049883;28;20404;-73
2022/07/17 01:09:26;;;;;;;6.78;2.15;;;;;;;;;;5049097;28;20040;-73
2022/07/17 01:11:52;;;;;;;6.63;2.88;;;;;;;;;;5046784;28;20075;-74
2022/07/17 01:14:18;;;;;;;12.07;2.80;;;;;;;;;;5022551;28;20040;-75
2022/07/17 01:16:44;;;;;;;5.85;2.53;;;;;;;;;;5030995;28;20044;-73
2022/07/17 01:19:11;;;;;;;5.45;2.47;;;;;;;;;;5042431;28;20602;-72
2022/07/17 01:21:41;;;;;;;6.90;2.65;;;;;;;;;;5050125;28;20029;-73
2022/07/17 01:24:07;;;;;;;7.50;3.10;;;;;;;;;;5049081;28;20465;-76
2022/07/17 01:26:36;;;;;;;10.20;4.35;;;;;;;;;;5037741;28;20440;-75
2022/07/17 01:29:02;;;;;;;7.40;3.47;;;;;;;;;;5049336;28;20047;-73
2022/07/17 01:31:28;;;;;;;12.68;4.03;;;;;;;;;;5033261;28;20395;-73
2022/07/17 01:33:55;;;;;;;10.23;3.55;;;;;;;;;;5057263;28;20036;-77
2022/07/17 01:36:24;;;;;;;13.57;3.00;;;;;;;;;;5047558;28;20045;-75
2022/07/17 01:38:51;;;;;;;7.65;3.38;;;;;;;;;;5038735;28;20422;-74
2022/07/17 01:41:17;;;;;;;9.30;3.33;;;;;;;;;;5047021;28;20060;-72
2022/07/17 01:43:43;;;;;;;5.97;3.00;;;;;;;;;;5054632;28;20219;-75
2022/07/17 01:46:09;;;;;;;11.70;3.00;;;;;;;;;;5050782;28;20040;-76
2022/07/17 01:48:35;;;;;;;6.95;2.75;;;;;;;;;;5049355;28;20066;-73
2022/07/17 01:51:03;;;;;;;7.05;2.78;;;;;;;;;;5052291;28;20029;-72
2022/07/17 01:53:29;;;;;;;8.13;3.20;;;;;;;;;;5050493;28;20038;-74
2022/07/17 01:55:55;;;;;;;6.28;2.50;;;;;;;;;;5053261;28;20052;-72
2022/07/17 01:58:21;;;;;;;7.45;2.97;;;;;;;;;;5049620;28;20036;-73
2022/07/17 02:00:47;;;;;;;8.75;3.85;;;;;;;;;;5057768;28;20037;-73
2022/07/17 02:03:13;;;;;;;10.95;5.03;;;;;;;;;;5044928;28;20057;-77
2022/07/17 02:05:39;;;;;;;9.63;3.50;;;;;;;;;;5050821;28;20040;-77
2022/07/17 02:08:05;;;;;;;9.60;3.80;;;;;;;;;;5050980;28;20025;-72
2022/07/17 02:10:31;;;;;;;7.43;3.72;;;;;;;;;;5052572;28;20072;-72
2022/07/17 02:12:58;;;;;;;12.73;4.25;;;;;;;;;;5052773;28;20054;-72
2022/07/17 02:15:24;;;;;;;10.77;3.83;;;;;;;;;;5042113;28;20042;-72
2022/07/17 02:17:51;;;;;;;6.93;3.47;;;;;;;;;;5053130;28;20104;-76
2022/07/17 02:20:17;;;;;;;10.25;3.58;;;;;;;;;;5050045;28;20052;-72
2022/07/17 02:22:44;;;;;;;4.65;2.08;;;;;;;;;;5051545;28;20041;-72
2022/07/17 02:25:11;;;;;;;5.63;3.05;;;;;;;;;;5052104;28;20045;-72
2022/07/17 02:27:37;;;;;;;4.43;2.40;;;;;;;;;;5034751;28;20025;-73
2022/07/17 02:30:08;;;;;;;7.32;2.35;;;;;;;;;;5056621;28;20078;-74
2022/07/17 02:32:34;;;;;;;7.40;2.25;;;;;;;;;;5051710;28;20103;-72
2022/07/17 02:35:00;;;;;;;5.60;1.85;;;;;;;;;;5046643;28;20477;-72
2022/07/17 02:37:26;;;;;;;4.53;2.33;;;;;;;;;;5045652;28;20480;-72
2022/07/17 02:39:52;;;;;;;6.78;2.20;;;;;;;;;;5050126;28;20358;-73
2022/07/17 02:42:22;;;;;;;7.43;2.20;;;;;;;;;;5052400;28;20067;-77
2022/07/17 02:44:48;;;;;;;4.43;2.20;;;;;;;;;;5053819;28;20044;-73
2022/07/17 02:47:21;;;;;;;4.90;1.90;;;;;;;;;;5053971;28;20032;-72
2022/07/17 02:49:47;;;;;;;5.57;2.20;;;;;;;;;;5050196;28;20540;-73
2022/07/17 02:52:13;;;;;;;3.65;1.92;;;;;;;;;;5047945;28;20029;-76
2022/07/17 02:54:40;;;;;;;6.45;2.72;;;;;;;;;;5050144;28;20041;-75
2022/07/17 02:57:06;;;;;;;7.78;2.25;;;;;;;;;;5052164;28;20036;-73
2022/07/17 02:59:32;;;;;;;5.45;2.70;;;;;;;;;;5055389;28;20481;-72
2022/07/17 03:01:58;;;;;;;3.78;1.70;;;;;;;;;;5040477;28;20110;-72
2022/07/17 03:04:24;;;;;;;4.72;2.33;;;;;;;;;;5041866;28;20112;-73
2022/07/17 03:06:50;;;;;;;5.95;1.73;;;;;;;;;;5029724;28;20033;-73
2022/07/17 03:09:16;;;;;;;7.82;2.17;;;;;;;;;;5028917;28;20041;-73
2022/07/17 03:11:42;;;;;;;6.50;2.80;;;;;;;;;;5032415;28;20029;-74
2022/07/17 03:14:08;;;;;;;6.07;2.17;;;;;;;;;;5042028;28;20029;-75
2022/07/17 03:16:34;;;;;;;4.57;2.15;;;;;;;;;;5050626;28;20086;-74
2022/07/17 03:19:00;;;;;;;5.30;2.50;;;;;;;;;;5033769;28;20033;-73
2022/07/17 03:21:26;;;;;;;6.80;2.28;;;;;;;;;;5047730;28;20699;-75
2022/07/17 03:23:52;;;;;;;5.75;3.03;;;;;;;;;;5048297;28;20527;-73
2022/07/17 03:26:19;;;;;;;4.20;2.25;;;;;;;;;;5045074;28;20583;-73
2022/07/17 03:28:45;;;;;;;3.60;1.70;;;;;;;;;;5048934;28;20473;-74
2022/07/17 03:31:11;;;;;;;5.78;2.15;;;;;;;;;;5039754;28;20029;-73
2022/07/17 03:33:37;;;;;;;4.47;1.90;;;;;;;;;;5047108;28;20496;-73
2022/07/17 03:36:03;;;;;;;2.00;1.38;;;;;;;;;;5049855;28;20036;-73
2022/07/17 03:38:29;;;;;;;2.90;1.83;;;;;;;;;;5049364;28;20040;-73
2022/07/17 03:40:55;;;;;;;3.42;1.95;;;;;;;;;;5047149;28;20048;-73
2022/07/17 03:43:21;;;;;;;2.60;1.50;;;;;;;;;;5045773;28;20037;-75
2022/07/17 03:45:47;;;;;;;6.82;2.05;;;;;;;;;;5050791;28;20037;-75
2022/07/17 03:48:13;;;;;;;6.00;1.30;;;;;;;;;;5048954;28;20037;-73
2022/07/17 03:50:40;;;;;;;4.80;1.67;;;;;;;;;;5052480;28;20029;-73
2022/07/17 03:53:06;;;;;;;6.03;1.33;;;;;;;;;;5049506;28;20059;-73
2022/07/17 03:55:32;;;;;;;4.82;1.80;;;;;;;;;;5048584;28;20044;-75
2022/07/17 03:57:58;;;;;;;2.42;1.35;;;;;;;;;;5054269;28;20385;-73
2022/07/17 04:00:24;;;;;;;1.20;1.10;;;;;;;;;;5049760;28;20063;-73
2022/07/17 04:02:50;;;;;;;5.22;1.67;;;;;;;;;;5048535;28;20025;-76
2022/07/17 04:05:16;;;;;;;5.00;1.60;;;;;;;;;;5042796;28;20384;-72
2022/07/17 04:07:43;;;;;;;5.25;1.33;;;;;;;;;;5038662;28;20622;-73
2022/07/17 04:10:10;;;;;;;4.20;1.60;;;;;;;;;;5045427;28;20027;-73
2022/07/17 04:12:36;;;;;;;5.60;1.55;;;;;;;;;;5031898;28;20037;-73
2022/07/17 04:15:02;;;;;;;4.15;2.20;;;;;;;;;;5045559;28;20032;-73
2022/07/17 04:17:28;;;;;;;4.43;1.33;;;;;;;;;;5047281;28;20025;-73
2022/07/17 04:19:55;;;;;;;4.05;1.38;;;;;;;;;;5034100;28;20033;-75
2022/07/17 04:22:21;;;;;;;5.60;1.70;;;;;;;;;;5048172;28;20031;-75
2022/07/17 04:24:47;;;;;;;8.02;1.63;;;;;;;;;;5048812;28;20623;-76
2022/07/17 04:27:13;;;;;;;5.00;1.70;;;;;;;;;;5041624;28;20164;-73
2022/07/17 04:29:39;;;;;;;6.40;2.80;;;;;;;;;;5049564;28;20473;-73
2022/07/17 04:32:06;;;;;;;5.40;1.88;;;;;;;;;;5033224;28;20480;-73
2022/07/17 04:34:33;;;;;;;4.15;1.60;;;;;;;;;;5046838;28;20067;-76
2022/07/17 04:37:00;;;;;;;5.00;1.40;;;;;;;;;;5048783;28;20033;-73
2022/07/17 04:39:26;;;;;;;3.42;1.30;;;;;;;;;;5046594;28;20035;-72
2022/07/17 04:41:52;;;;;;;6.22;1.75;;;;;;;;;;5047925;28;20558;-72
2022/07/17 04:44:18;;;;;;;7.38;1.42;;;;;;;;;;5050485;28;20026;-73
2022/07/17 04:46:44;;;;;;;5.93;1.30;;;;;;;;;;5047796;28;20100;-74
2022/07/17 04:49:11;;;;;;;4.90;1.35;;;;;;;;;;5047196;28;20126;-73
2022/07/17 04:51:37;;;;;;;3.03;1.50;;;;;;;;;;5050196;28;20037;-80
2022/07/17 04:54:03;;;;;;;4.10;1.33;;;;;;;;;;5049669;28;20033;-74
2022/07/17 04:56:29;;;;;;;4.65;1.75;;;;;;;;;;5039133;28;20111;-73
2022/07/17 04:58:55;;;;;;;3.55;1.42;;;;;;;;;;5036250;28;20025;-74
2022/07/17 05:01:21;;;;;;;5.90;1.17;;;;;;;;;;5054727;28;20029;-73
2022/07/17 05:03:47;;;;;;;4.88;1.45;;;;;;;;;;5049566;28;20025;-76
2022/07/17 05:06:13;;;;;;;3.03;1.65;;;;;;;;;;5050854;28;20082;-71
2022/07/17 05:08:39;;;;;;;5.35;1.27;;;;;;;;;;5053473;28;20025;-74
2022/07/17 05:11:05;;;;;;;5.80;1.92;;;;;;;;;;5054798;28;20539;-74
2022/07/17 05:13:31;;;;;;;3.22;1.25;;;;;;;;;;5054337;28;20036;-72
2022/07/17 05:15:57;;;;;;;3.97;1.20;;;;;;;;;;5047004;28;20029;-73
2022/07/17 05:18:23;;;;;;;4.40;1.30;;;;;;;;;;5054939;28;20029;-78
2022/07/17 05:20:49;;;;;;;8.27;1.13;;;;;;;;;;5062731;28;20028;-73
2022/07/17 05:23:16;;;;;;;9.18;1.10;;;;;;;;;;5050242;28;20032;-71
2022/07/17 05:25:43;;;;;;;9.50;2.80;;;;;;;;;;5032927;28;20052;-76
2022/07/17 05:28:09;;;;;;;5.78;1.95;;;;;;;;;;5045357;28;20029;-74
2022/07/17 05:30:35;;;;;;;4.25;1.70;;;;;;;;;;5047090;28;20020;-77
2022/07/17 05:33:01;;;;;;;4.18;1.05;;;;;;;;;;5049789;28;20037;-74
2022/07/17 05:35:27;;;;;;;8.63;1.45;;;;;;;;;;5050932;28;20037;-73
2022/07/17 05:37:54;;;;;;;5.45;1.52;;;;;;;;;;5044930;28;20076;-75
2022/07/17 05:40:20;;;;;;;4.35;1.30;;;;;;;;;;5035046;28;20057;-73
2022/07/17 05:42:46;;;;;;;5.35;1.85;;;;;;;;;;5051066;28;20499;-74
2022/07/17 05:45:12;;;;;;;3.58;1.40;;;;;;;;;;5041854;28;20041;-74
2022/07/17 05:47:38;;;;;;;5.05;1.55;;;;;;;;;;5045366;28;20390;-76
2022/07/17 05:50:04;;;;;;;6.50;1.50;;;;;;;;;;5050573;28;20522;-73
2022/07/17 05:52:30;;;;;;;5.15;1.70;;;;;;;;;;5054026;28;20056;-74
2022/07/17 05:54:56;;;;;;;7.25;2.70;;;;;;;;;;5046728;28;20498;-74
2022/07/17 05:57:22;;;;;;;4.45;1.48;;;;;;;;;;5050819;28;20623;-74
2022/07/17 05:59:48;;;;;;;4.35;1.45;;;;;;;;;;5044439;28;20036;-74
2022/07/17 06:02:14;;;;;;;3.47;1.50;;;;;;;;;;5051868;28;20028;-74
2022/07/17 06:04:40;;;;;;;6.18;1.52;;;;;;;;;;5050999;28;20029;-78
2022/07/17 06:07:06;;;;;;;8.35;1.50;;;;;;;;;;5052422;28;20033;-74
2022/07/17 06:09:32;;;;;;;10.30;2.35;;;;;;;;;;5045983;28;20037;-73
2022/07/17 06:11:58;;;;;;;5.20;1.80;;;;;;;;;;5043215;28;20045;-74
2022/07/17 06:14:24;;;;;;;5.63;1.23;;;;;;;;;;5050080;28;20037;-74
2022/07/17 06:16:51;;;;;;;4.97;1.25;;;;;;;;;;5055337;28;20033;-75
2022/07/17 06:19:17;;;;;;;5.75;1.25;;;;;;;;;;5049934;28;20029;-74
2022/07/17 06:21:43;;;;;;;3.60;1.20;;;;;;;;;;5043568;28;20044;-75
2022/07/17 06:24:09;;;;;;;11.52;2.50;;;;;;;;;;5047586;28;20043;-74
2022/07/17 06:26:35;;;;;;;11.88;2.13;;;;;;;;;;5043726;28;20132;-74
2022/07/17 06:29:01;;;;;;;7.75;1.70;;;;;;;;;;5050102;28;20025;-75
2022/07/17 06:31:28;;;;;;;6.07;1.30;;;;;;;;;;5046794;28;20385;-75
2022/07/17 06:33:54;;;;;;;3.75;0.98;;;;;;;;;;5047275;28;20025;-74
2022/07/17 06:36:20;;;;;;;6.18;1.38;;;;;;;;;;5035646;28;20032;-74
2022/07/17 06:38:46;;;;;;;7.40;1.63;;;;;;;;;;5040842;28;20045;-74
2022/07/17 06:41:13;;;;;;;7.50;1.17;;;;;;;;;;5044238;28;20388;-73
2022/07/17 06:43:39;;;;;;;7.38;2.00;;;;;;;;;;5049888;28;20086;-72
2022/07/17 06:46:05;;;;;;;10.27;1.67;;;;;;;;;;5051636;28;20052;-73
2022/07/17 06:48:31;;;;;;;8.68;1.75;;;;;;;;;;5050892;28;20033;-72
2022/07/17 06:50:57;;;;;;;6.38;1.00;;;;;;;;;;5049124;28;20385;-72
2022/07/17 06:53:23;;;;;;;6.70;0.90;;;;;;;;;;5059131;28;20021;-73
2022/07/17 06:55:49;;;;;;;9.90;1.25;;;;;;;;;;5053004;28;20037;-74
2022/07/17 06:58:15;;;;;;;10.52;1.10;;;;;;;;;;5052439;28;20075;-74
2022/07/17 07:00:41;;;;;;;7.65;1.80;;;;;;;;;;5046614;28;20108;-74
2022/07/17 07:03:07;;;;;;;4.20;1.00;;;;;;;;;;5045848;28;20033;-73
2022/07/17 07:05:33;;;;;;;3.60;0.90;;;;;;;;;;5047959;28;20029;-72
2022/07/17 07:08:00;;;;;;;7.10;0.88;;;;;;;;;;5042095;28;20038;-73
2022/07/17 07:10:26;;;;;;;5.85;1.38;;;;;;;;;;5048776;28;20031;-72
2022/07/17 07:12:52;;;;;;;4.88;1.45;;;;;;;;;;5053280;28;20476;-72
2022/07/17 07:15:19;;;;;;;7.38;1.00;;;;;;;;;;5048084;28;20469;-71
2022/07/17 07:17:45;;;;;;;5.72;1.27;;;;;;;;;;5065445;28;20431;-71
2022/07/17 07:20:12;;;;;;;5.60;0.80;;;;;;;;;;5048435;28;20052;-71
2022/07/17 07:22:38;;;;;;;5.78;0.73;;;;;;;;;;5053042;28;20033;-74
2022/07/17 07:25:05;;;;;;;6.18;0.60;;;;;;;;;;5050758;28;20412;-71
2022/07/17 07:27:31;;;;;;;6.38;1.00;;;;;;;;;;5051361;28;20025;-72
2022/07/17 07:29:57;;;;;;;5.28;0.80;;;;;;;;;;5051993;28;20033;-72
2022/07/17 07:32:23;;;;;;;2.85;0.63;;;;;;;;;;5044261;28;20032;-72
2022/07/17 07:34:49;;;;;;;11.02;0.95;;;;;;;;;;5049847;28;20029;-72
2022/07/17 07:37:16;;;;;;;4.65;0.98;;;;;;;;;;5048706;28;20033;-72
2022/07/17 07:39:42;;;;;;;7.35;1.90;;;;;;;;;;5042435;28;20512;-73
2022/07/17 07:42:11;;;;;;;6.68;0.90;;;;;;;;;;5040932;28;20038;-73
2022/07/17 07:44:37;;;;;;;3.08;0.60;;;;;;;;;;5040339;28;20033;-72
2022/07/17 07:47:03;;;;;;;6.40;1.00;;;;;;;;;;5052451;28;20059;-72
2022/07/17 07:49:30;;;;;;;6.53;1.00;;;;;;;;;;5048268;28;20029;-72
2022/07/17 07:51:56;;;;;;;5.50;1.27;;;;;;;;;;5049870;28;20143;-73
2022/07/17 07:54:22;;;;;;;4.75;0.80;;;;;;;;;;5046392;28;20042;-73
2022/07/17 07:56:48;;;;;;;4.20;1.38;;;;;;;;;;5049162;28;20043;-72
2022/07/17 07:59:14;;;;;;;5.55;0.90;;;;;;;;;;5048787;28;20029;-72
2022/07/17 08:01:41;;;;;;;6.18;1.20;;;;;;;;;;5042626;28;20388;-73
2022/07/17 08:04:07;;;;;;;4.13;0.65;;;;;;;;;;5051164;28;20053;-72
2022/07/17 08:06:33;;;;;;;5.78;1.13;;;;;;;;;;5048861;28;20032;-73
2022/07/17 08:08:59;;;;;;;3.30;1.42;;;;;;;;;;5033156;28;20079;-73
2022/07/17 08:11:26;;;;;;;5.25;1.10;;;;;;;;;;5043544;28;20025;-72
2022/07/17 08:13:52;;;;;;;4.30;1.00;;;;;;;;;;5033056;28;20029;-74
2022/07/17 08:16:18;;;;;;;4.05;0.80;;;;;;;;;;5044596;28;20041;-73
2022/07/17 08:18:44;;;;;;;5.53;1.17;;;;;;;;;;5051462;28;20184;-73
2022/07/17 08:21:10;;;;;;;5.93;1.10;;;;;;;;;;5030573;28;20033;-73
2022/07/17 08:23:36;;;;;;;6.13;1.20;;;;;;;;;;5070672;28;20117;-72
2022/07/17 08:26:03;;;;;;;2.28;0.60;;;;;;;;;;5049617;28;20049;-73
2022/07/17 08:28:29;;;;;;;4.97;1.00;;;;;;;;;;5049529;28;20025;-73
2022/07/17 08:30:55;;;;;;;6.00;1.48;;;;;;;;;;5050899;28;20036;-73
2022/07/17 08:33:21;;;;;;;3.33;0.80;;;;;;;;;;5031969;28;20041;-73
2022/07/17 08:35:47;;;;;;;5.05;1.25;;;;;;;;;;5050305;28;20047;-72
2022/07/17 08:38:13;;;;;;;7.38;1.30;;;;;;;;;;5050296;28;20673;-72
2022/07/17 08:40:40;;;;;;;7.63;1.55;;;;;;;;;;5049425;28;20037;-73
2022/07/17 08:43:08;;;;;;;3.47;0.85;;;;;;;;;;5050293;28;20036;-72
2022/07/17 08:45:35;;;;;;;3.40;1.00;;;;;;;;;;5043628;28;20033;-72
2022/07/17 08:48:01;;;;;;;3.60;0.80;;;;;;;;;;5050835;28;20096;-72
2022/07/17 08:50:30;;;;;;;5.63;1.15;;;;;;;;;;5050219;28;20465;-72
2022/07/17 08:52:57;;;;;;;4.60;0.80;;;;;;;;;;5053281;28;20029;-73
2022/07/17 08:55:23;;;;;;;4.32;1.27;;;;;;;;;;5038225;28;20474;-74
2022/07/17 08:57:49;;;;;;;1.48;0.68;;;;;;;;;;5049029;28;20041;-73
2022/07/17 09:00:16;;;;;;;5.93;0.90;;;;;;;;;;5049036;28;20017;-72
2022/07/17 09:03:00;;;;;;;5.57;1.00;;;;;;;;;;5031271;28;20037;-73
2022/07/17 09:05:28;;;;;;;4.68;0.93;;;;;;;;;;5048929;28;20125;-73
2022/07/17 09:07:54;;;;;;;4.10;0.77;;;;;;;;;;5040852;28;20121;-75
2022/07/17 09:10:30;;;;;;;2.13;0.52;;;;;;;;;;5040265;28;20037;-73
2022/07/17 09:12:56;;;;;;;3.03;0.68;;;;;;;;;;5048283;28;20032;-73
2022/07/17 09:15:22;;;;;;;2.28;0.80;;;;;;;;;;5050528;28;20044;-73
2022/07/17 09:17:49;;;;;;;3.35;1.00;;;;;;;;;;5017661;28;20049;-73
2022/07/17 09:20:16;;;;;;;2.67;1.13;;;;;;;;;;5040822;28;20040;-72
2022/07/17 09:22:43;;;;;;;6.50;1.23;;;;;;;;;;5050872;28;20025;-72
2022/07/17 09:25:09;;;;;;;4.20;1.10;;;;;;;;;;5038304;28;20687;-72
2022/07/17 09:27:35;;;;;;;3.28;0.90;;;;;;;;;;5030536;28;20036;-73
2022/07/17 09:30:03;;;;;;;3.55;0.93;;;;;;;;;;5054466;28;20048;-73
2022/07/17 09:32:31;;;;;;;2.22;0.98;;;;;;;;;;5050275;28;20033;-73
2022/07/17 09:34:59;;;;;;;5.82;0.85;;;;;;;;;;5050462;28;20060;-73
2022/07/17 09:37:25;;;;;;;5.13;1.00;;;;;;;;;;5049190;28;20041;-72
2022/07/17 09:39:53;;;;;;;2.30;0.80;;;;;;;;;;5048729;28;20064;-73
2022/07/17 09:42:23;;;;;;;3.22;0.90;;;;;;;;;;5050559;28;20029;-73
2022/07/17 09:45:01;;;;;;;5.07;1.05;;;;;;;;;;5051690;28;20036;-73
2022/07/17 09:47:28;;;;;;;5.15;1.50;;;;;;;;;;5032700;28;20370;-72
2022/07/17 09:49:55;;;;;;;7.85;1.10;;;;;;;;;;5047156;28;20041;-74
2022/07/17 09:52:25;;;;;;;5.10;0.95;;;;;;;;;;5056770;28;20710;-73
2022/07/17 09:54:52;;;;;;;3.50;1.10;;;;;;;;;;5051390;28;20044;-73
2022/07/17 09:57:19;;;;;;;2.65;0.90;;;;;;;;;;5053635;28;20172;-73
2022/07/17 09:59:46;;;;;;;3.13;0.88;;;;;;;;;;5052465;28;20044;-73
2022/07/17 10:02:12;;;;;;;3.58;1.23;;;;;;;;;;5052776;28;20025;-75
2022/07/17 10:04:38;;;;;;;6.40;1.23;;;;;;;;;;5051499;28;20086;-73
2022/07/17 10:07:08;;;;;;;1.85;0.80;;;;;;;;;;5053472;28;20056;-73
2022/07/17 10:09:34;;;;;;;4.07;0.70;;;;;;;;;;5051904;28;20079;-73
2022/07/17 10:12:01;;;;;;;3.50;0.90;;;;;;;;;;5050939;28;20465;-73
2022/07/17 10:14:27;;;;;;;2.08;0.73;;;;;;;;;;5052639;28;20061;-73
2022/07/17 10:16:53;;;;;;;2.97;0.80;;;;;;;;;;5045562;28;20084;-73
2022/07/17 10:19:21;;;;;;;5.60;1.50;;;;;;;;;;5053547;28;20115;-72
2022/07/17 10:21:54;;;;;;;3.28;0.90;;;;;;;;;;5052462;28;20036;-74
2022/07/17 10:24:21;;;;;;;2.35;0.70;;;;;;;;;;5034848;28;20492;-73
2022/07/17 10:26:49;;;;;;;3.22;0.75;;;;;;;;;;5031612;28;20136;-73
2022/07/17 10:29:31;;;;;;;3.50;0.80;;;;;;;;;;5036987;28;20480;-73
2022/07/17 10:31:58;;;;;;;4.85;0.75;;;;;;;;;;5032371;28;20028;-73
2022/07/17 10:34:41;;;;;;;4.05;1.00;;;;;;;;;;5021066;28;20105;-73
2022/07/17 10:37:21;;;;;;;3.58;0.85;;;;;;;;;;5017018;28;20643;-73
2022/07/17 10:39:54;;;;;;;2.65;0.80;;;;;;;;;;5029017;28;20153;-73
2022/07/17 10:42:39;;;;;;;3.90;0.82;;;;;;;;;;5031925;28;20025;-73
2022/07/17 10:45:09;;;;;;;2.50;0.73;;;;;;;;;;5023488;28;20393;-73
2022/07/17 10:47:44;;;;;;;3.50;1.20;;;;;;;;;;5032465;28;20022;-72
2022/07/17 10:50:11;;;;;;;4.85;0.82;;;;;;;;;;5028783;28;20030;-72
2022/07/17 10:52:37;;;;;;;2.47;0.82;;;;;;;;;;5035823;28;20028;-72
2022/07/17 10:55:05;;;;;;;3.38;0.85;;;;;;;;;;5029295;28;20374;-73
2022/07/17 10:57:32;;;;;;;5.30;1.15;;;;;;;;;;5026737;28;20033;-73
2022/07/17 10:59:58;;;;;;;3.08;0.90;;;;;;;;;;5031554;28;20018;-73
2022/07/17 11:02:30;;;;;;;3.97;0.93;;;;;;;;;;5029983;28;20465;-73
2022/07/17 11:05:06;;;;;;;3.08;1.27;;;;;;;;;;5029865;28;20040;-73
2022/07/17 11:07:33;;;;;;;2.63;0.80;;;;;;;;;;5022770;28;20036;-73
2022/07/17 11:10:00;;;;;;;3.45;0.90;;;;;;;;;;5033076;28;20369;-74
2022/07/17 11:12:35;;;;;;;3.67;1.05;;;;;;;;;;5030840;28;20033;-76
2022/07/17 11:15:02;;;;;;;2.33;0.75;;;;;;;;;;5031028;28;20029;-72
2022/07/17 11:17:28;;;;;;;2.42;0.80;;;;;;;;;;5021047;28;20037;-74
2022/07/17 11:19:54;;;;;;;3.47;1.30;;;;;;;;;;5022644;28;20121;-75
2022/07/17 11:22:32;;;;;;;3.33;1.05;;;;;;;;;;5017963;28;20026;-71
2022/07/17 11:24:59;;;;;;;2.20;0.80;;;;;;;;;;5025090;28;20037;-72
2022/07/17 11:27:26;;;;;;;2.42;0.90;;;;;;;;;;5032347;28;20037;-72
2022/07/17 11:29:53;;;;;;;1.42;0.85;;;;;;;;;;5021188;28;20042;-72
2022/07/17 11:32:19;;;;;;;2.28;0.90;;;;;;;;;;5024578;28;20025;-77
2022/07/17 11:34:45;;;;;;;2.95;1.17;;;;;;;;;;5027267;28;20029;-72
2022/07/17 11:37:11;;;;;;;4.30;1.00;;;;;;;;;;5029769;28;20500;-73
2022/07/17 11:39:48;;;;;;;3.92;1.10;;;;;;;;;;5022195;28;20026;-78
2022/07/17 11:42:18;;;;;;;4.53;1.17;;;;;;;;;;5029977;28;20100;-72
2022/07/17 11:44:45;;;;;;;3.97;1.30;;;;;;;;;;5031055;28;20037;-71
2022/07/17 11:47:12;;;;;;;3.47;1.60;;;;;;;;;;5029864;28;20045;-71
2022/07/17 11:49:40;;;;;;;7.13;4.90;;;;;;;;;;5028762;28;20553;-70
2022/07/17 11:52:10;;;;;;;3.13;1.42;;;;;;;;;;5025119;28;20393;-74
2022/07/17 11:54:49;;;;;;;4.32;2.20;;;;;;;;;;5028007;28;20025;-71
2022/07/17 11:57:17;;;;;;;3.92;1.33;;;;;;;;;;5018250;28;20541;-72
2022/07/17 11:59:43;;;;;;;2.85;1.35;;;;;;;;;;5020025;28;20025;-70
2022/07/17 12:02:14;;;;;;;2.65;1.40;;;;;;;;;;5024292;28;20029;-74
2022/07/17 12:04:53;;;;;;;2.20;1.37;;;;;;;;;;5021659;28;20049;-71
2022/07/17 12:07:20;;;;;;;2.83;1.40;;;;;;;;;;5027780;28;20060;-71
2022/07/17 12:09:46;;;;;;;4.32;1.60;;;;;;;;;;5029590;28;20346;-72
2022/07/17 12:12:20;;;;;;;4.13;1.77;;;;;;;;;;5029568;28;20435;-72
2022/07/17 12:14:52;;;;;;;6.13;1.75;;;;;;;;;;5006947;28;20378;-72
2022/07/17 12:17:19;;;;;;;3.10;1.67;;;;;;;;;;5013333;28;20037;-71
2022/07/17 12:19:45;;;;;;;2.47;1.42;;;;;;;;;;5030603;28;20029;-71
2022/07/17 12:22:11;;;;;;;3.13;1.50;;;;;;;;;;5008507;28;20026;-70
2022/07/17 12:24:38;;;;;;;5.28;2.28;;;;;;;;;;5018791;28;20102;-78
2022/07/17 12:27:05;;;;;;;3.65;2.20;;;;;;;;;;5041072;28;20064;-71
2022/07/17 12:29:33;;;;;;;3.33;1.95;;;;;;;;;;5047609;28;20037;-72
2022/07/17 12:32:12;;;;;;;2.25;1.50;;;;;;;;;;5049527;28;20033;-72
2022/07/17 12:34:44;;;;;;;3.83;1.88;;;;;;;;;;5029820;28;20033;-71
2022/07/17 12:37:11;;;;;;;4.10;2.15;;;;;;;;;;5046567;28;20448;-71
2022/07/17 12:39:37;;;;;;;3.05;1.55;;;;;;;;;;5047466;28;20033;-72
2022/07/17 12:42:04;;;;;;;4.13;1.95;;;;;;;;;;5050629;28;20473;-72
2022/07/17 12:44:30;;;;;;;3.25;1.70;;;;;;;;;;5041748;28;20072;-75
2022/07/17 12:46:56;;;;;;;3.33;2.30;;;;;;;;;;5043980;28;20040;-72
2022/07/17 12:49:25;;;;;;;5.82;1.90;;;;;;;;;;5046456;28;20032;-71
2022/07/17 12:51:51;;;;;;;5.30;1.90;;;;;;;;;;5047222;28;20071;-72
2022/07/17 12:54:17;;;;;;;6.32;2.20;;;;;;;;;;5036795;28;20025;-72
2022/07/17 12:56:43;;;;;;;2.60;1.80;;;;;;;;;;5042064;28;20040;-72
2022/07/17 12:59:09;;;;;;;3.78;1.48;;;;;;;;;;5026067;28;20025;-72
2022/07/17 13:01:36;;;;;;;4.57;2.10;;;;;;;;;;5043134;28;20025;-72
2022/07/17 13:04:02;;;;;;;2.25;1.70;;;;;;;;;;5047891;28;20025;-74
2022/07/17 13:06:28;;;;;;;7.05;2.10;;;;;;;;;;5048489;28;20036;-79
2022/07/17 13:08:54;;;;;;;4.78;2.05;;;;;;;;;;5064163;28;20068;-72
2022/07/17 13:11:20;;;;;;;3.78;2.03;;;;;;;;;;5053536;28;20148;-72
2022/07/17 13:13:46;;;;;;;11.15;7.03;;;;;;;;;;5036803;28;20034;-72
2022/07/17 13:16:13;;;;;;;2.90;1.90;;;;;;;;;;5046449;28;20481;-72
2022/07/17 13:18:40;;;;;;;5.55;2.25;;;;;;;;;;5046310;28;20415;-72
2022/07/17 13:21:06;;;;;;;3.72;2.13;;;;;;;;;;5049941;28;20443;-74
2022/07/17 13:23:36;;;;;;;4.22;2.20;;;;;;;;;;5039098;28;20113;-73
2022/07/17 13:26:03;;;;;;;3.08;1.92;;;;;;;;;;5046742;28;20053;-73
2022/07/17 13:28:29;;;;;;;10.07;3.88;;;;;;;;;;5054073;28;20112;-74
2022/07/17 13:30:56;;;;;;;9.02;2.90;;;;;;;;;;5035005;28;20041;-73
2022/07/17 13:33:22;;;;;;;7.65;2.30;;;;;;;;;;5047257;28;20551;-73
2022/07/17 13:35:48;;;;;;;3.97;2.15;;;;;;;;;;5052955;28;20044;-73
2022/07/17 13:38:14;;;;;;;4.47;2.28;;;;;;;;;;5033901;28;20033;-73
2022/07/17 13:40:41;;;;;;;5.38;2.22;;;;;;;;;;5039950;28;20360;-73
2022/07/17 13:43:07;;;;;;;3.67;1.95;;;;;;;;;;5049797;28;20025;-73
2022/07/17 13:45:33;;;;;;;5.50;2.35;;;;;;;;;;5052600;28;20738;-73
2022/07/17 13:48:00;;;;;;;4.55;1.92;;;;;;;;;;5051365;28;20496;-73
2022/07/17 13:50:26;;;;;;;6.85;2.00;;;;;;;;;;5035482;28;20500;-73
2022/07/17 13:52:54;;;;;;;4.93;1.75;;;;;;;;;;5048410;28;20036;-74
2022/07/17 13:55:20;;;;;;;3.08;2.00;;;;;;;;;;5045783;28;20205;-71
2022/07/17 13:57:46;;;;;;;3.30;1.77;;;;;;;;;;5053286;28;20098;-71
2022/07/17 14:00:12;;;;;;;3.72;2.30;;;;;;;;;;5047333;28;20469;-74
2022/07/17 14:02:39;;;;;;;6.63;2.20;;;;;;;;;;5047929;28;20118;-74
2022/07/17 14:05:06;;;;;;;2.42;1.92;;;;;;;;;;5050857;28;20180;-74
2022/07/17 14:07:32;;;;;;;3.05;1.90;;;;;;;;;;5053370;28;20055;-74
2022/07/17 14:09:59;;;;;;;4.07;2.00;;;;;;;;;;5040122;28;20040;-74
2022/07/17 14:12:25;;;;;;;4.05;2.17;;;;;;;;;;5049010;28;20041;-74
2022/07/17 14:14:51;;;;;;;4.68;2.00;;;;;;;;;;5049984;28;20037;-75
2022/07/17 14:17:17;;;;;;;6.70;1.92;;;;;;;;;;5052662;28;20033;-74
2022/07/17 14:19:44;;;;;;;3.17;1.80;;;;;;;;;;5032482;28;20443;-74
2022/07/17 14:22:10;;;;;;;4.75;2.00;;;;;;;;;;5048275;28;20033;-73
2022/07/17 14:24:36;;;;;;;3.92;1.95;;;;;;;;;;5049846;28;20048;-73
2022/07/17 14:27:02;;;;;;;4.45;1.90;;;;;;;;;;5051298;28;20091;-73
2022/07/17 14:29:28;;;;;;;4.10;1.83;;;;;;;;;;5032410;28;20025;-73
2022/07/17 14:31:54;;;;;;;3.95;2.17;;;;;;;;;;5047252;28;20249;-73
2022/07/17 14:34:21;;;;;;;8.48;2.25;;;;;;;;;;5047757;28;20032;-74
2022/07/17 14:36:47;;;;;;;7.53;2.30;;;;;;;;;;5025892;28;20464;-73
2022/07/17 14:39:13;;;;;;;6.65;2.20;;;;;;;;;;5050400;28;20040;-72
2022/07/17 14:41:40;;;;;;;2.85;1.88;;;;;;;;;;5016655;28;20040;-73